Time;durP1;ratioP1;P1;durP2;ratioP2;P2;SDS_P1;SDS_P2;PMS_P1;PMS_P2;Temp;Humidity;BMP_temperature;BMP_pressure;BME280_temperature;BME280_humidity;BME280_pressure;Samples;Min_cycle;Max_cycle;Signal;HPM_P1;HPM_P2
2023/01/05 00:00:53;;;;;;;1.27;0.30;;;10.60;99.90;;;;;;5096279;28;20024;-73
2023/01/05 00:03:19;;;;;;;1.48;0.50;;;10.60;99.90;;;;;;5095625;28;20070;-74
2023/01/05 00:05:44;;;;;;;0.40;0.20;;;10.60;99.90;;;;;;5096329;28;20054;-73
2023/01/05 00:08:10;;;;;;;0.50;0.40;;;10.60;99.90;;;;;;5114560;28;20536;-73
2023/01/05 00:24:22;;;;;;;0.28;0.28;;;10.60;99.90;;;;;;5113397;28;20128;-73
2023/01/05 00:26:48;;;;;;;0.43;0.30;;;10.60;99.90;;;;;;5095910;28;20081;-73
2023/01/05 00:29:14;;;;;;;2.78;0.30;;;10.50;99.90;;;;;;5114080;28;20038;-73
2023/01/05 00:31:39;;;;;;;0.75;0.30;;;10.50;99.90;;;;;;5095311;28;20027;-73
2023/01/05 00:34:05;;;;;;;0.32;0.25;;;10.50;99.90;;;;;;5113756;28;20023;-73
2023/01/05 00:36:30;;;;;;;1.10;0.30;;;10.50;99.90;;;;;;5113191;28;20427;-73
2023/01/05 00:38:56;;;;;;;0.60;0.30;;;10.50;99.90;;;;;;5113549;28;20028;-72
2023/01/05 00:41:21;;;;;;;0.30;0.22;;;10.50;99.90;;;;;;5113067;28;20053;-73
2023/01/05 00:43:47;;;;;;;0.38;0.30;;;10.60;99.90;;;;;;5095766;28;20526;-73
2023/01/05 00:46:12;;;;;;;0.63;0.25;;;10.60;99.90;;;;;;5113438;28;20077;-73
2023/01/05 00:48:38;;;;;;;0.50;0.30;;;10.60;99.90;;;;;;5113273;28;20032;-73
2023/01/05 00:51:04;;;;;;;0.35;0.28;;;10.60;99.90;;;;;;5095665;28;20024;-73
2023/01/05 00:53:29;;;;;;;0.28;0.28;;;10.60;99.90;;;;;;5094941;28;20042;-73
2023/01/05 00:55:56;;;;;;;0.30;0.30;;;10.60;99.90;;;;;;5095629;28;20024;-73
2023/01/05 00:58:22;;;;;;;0.40;0.30;;;10.50;99.90;;;;;;5113250;28;20024;-74
2023/01/05 01:00:48;;;;;;;0.20;0.20;;;10.60;99.90;;;;;;5113405;28;20361;-73
2023/01/05 01:03:13;;;;;;;0.22;0.22;;;10.60;99.90;;;;;;5095246;28;20054;-73
2023/01/05 01:05:39;;;;;;;0.68;0.30;;;10.60;99.90;;;;;;5094774;28;20081;-73
2023/01/05 01:08:04;;;;;;;1.42;0.38;;;10.50;99.90;;;;;;5113722;28;20032;-73
2023/01/05 01:10:30;;;;;;;0.30;0.30;;;10.50;99.90;;;;;;5112959;28;20024;-74
2023/01/05 01:12:55;;;;;;;0.25;0.22;;;10.50;99.90;;;;;;5113385;28;20111;-73
2023/01/05 01:15:21;;;;;;;0.40;0.30;;;10.50;99.90;;;;;;5094639;28;20027;-73
2023/01/05 01:17:47;;;;;;;0.55;0.22;;;10.50;99.90;;;;;;5094278;28;20051;-73
2023/01/05 01:20:12;;;;;;;0.40;0.28;;;10.50;99.90;;;;;;5113270;28;20084;-72
2023/01/05 01:22:38;;;;;;;1.10;0.65;;;10.50;99.90;;;;;;5112704;28;20032;-73
2023/01/05 01:25:04;;;;;;;0.30;0.20;;;10.50;99.90;;;;;;5095140;28;20023;-73
2023/01/05 01:27:31;;;;;;;0.20;0.20;;;10.50;99.90;;;;;;5094256;28;20039;-73
2023/01/05 01:29:56;;;;;;;0.57;0.40;;;10.50;99.90;;;;;;5094843;28;20034;-73
2023/01/05 01:32:23;;;;;;;0.30;0.30;;;10.50;99.90;;;;;;5095030;28;20024;-73
2023/01/05 01:34:49;;;;;;;0.55;0.30;;;10.60;99.90;;;;;;5113052;28;20016;-73
2023/01/05 01:37:15;;;;;;;0.30;0.30;;;10.60;99.90;;;;;;5113082;28;20473;-73
2023/01/05 01:39:40;;;;;;;1.15;0.20;;;10.60;99.90;;;;;;5094288;28;20473;-73
2023/01/05 01:42:14;;;;;;;0.73;0.20;;;10.60;99.90;;;;;;5112717;28;20117;-73
2023/01/05 01:44:51;;;;;;;0.40;0.20;;;10.60;99.90;;;;;;5112577;28;20039;-73
2023/01/05 01:47:46;;;;;;;0.30;0.20;;;10.60;99.90;;;;;;5094936;28;20165;-73
2023/01/05 01:50:21;;;;;;;0.20;0.20;;;10.70;99.90;;;;;;5094943;28;20111;-72
2023/01/05 01:52:49;;;;;;;0.30;0.20;;;10.70;99.90;;;;;;5094258;28;20122;-73
2023/01/05 01:55:17;;;;;;;1.33;0.22;;;10.70;99.90;;;;;;5094693;28;20023;-73
2023/01/05 01:57:45;;;;;;;0.40;0.40;;;10.70;99.90;;;;;;5112532;28;20032;-73
2023/01/05 02:00:13;;;;;;;0.30;0.20;;;10.70;99.90;;;;;;5112825;28;20049;-73
2023/01/05 02:02:39;;;;;;;0.88;0.20;;;10.70;99.90;;;;;;5094037;28;20248;-73
2023/01/05 02:05:10;;;;;;;0.28;0.20;;;10.70;99.90;;;;;;5112847;28;20019;-73
2023/01/05 02:07:44;;;;;;;0.10;0.10;;;10.70;99.90;;;;;;5094107;28;20028;-73
2023/01/05 02:10:09;;;;;;;0.10;0.10;;;10.70;99.90;;;;;;5112821;28;20031;-72
2023/01/05 02:12:37;;;;;;;0.63;0.30;;;10.70;99.90;;;;;;5093970;28;20385;-73
2023/01/05 02:15:32;;;;;;;0.17;0.17;;;10.70;99.90;;;;;;5094710;28;20365;-73
2023/01/05 02:18:25;;;;;;;0.60;0.22;;;10.80;99.90;;;;;;5112704;28;20040;-73
2023/01/05 02:21:05;;;;;;;0.20;0.20;;;10.80;99.90;;;;;;5094440;28;20028;-73
2023/01/05 02:23:50;;;;;;;0.90;0.15;;;10.80;99.90;;;;;;5112262;28;20067;-73
2023/01/05 02:26:53;;;;;;;0.68;0.25;;;10.80;99.90;;;;;;5112773;28;20050;-72
2023/01/05 02:29:56;;;;;;;0.20;0.10;;;10.80;99.90;;;;;;5115798;28;20084;-72
2023/01/05 02:32:25;;;;;;;0.40;0.20;;;10.80;99.90;;;;;;5098198;28;20023;-73
2023/01/05 02:34:54;;;;;;;0.28;0.20;;;10.90;99.90;;;;;;5097552;28;20028;-73
2023/01/05 02:37:35;;;;;;;0.20;0.20;;;10.90;99.90;;;;;;5116308;28;20070;-73
2023/01/05 02:40:22;;;;;;;2.13;0.20;;;10.90;99.90;;;;;;5116391;28;20072;-73
2023/01/05 02:42:51;;;;;;;0.30;0.28;;;10.80;99.90;;;;;;5097421;28;20077;-73
2023/01/05 02:45:16;;;;;;;0.40;0.20;;;10.80;99.90;;;;;;5098007;28;20031;-73
2023/01/05 02:47:44;;;;;;;0.63;0.22;;;10.70;99.90;;;;;;5097424;28;20020;-73
2023/01/05 02:50:18;;;;;;;1.10;0.20;;;10.80;99.90;;;;;;5098060;28;20053;-73
2023/01/05 02:52:53;;;;;;;0.25;0.25;;;10.80;99.90;;;;;;5097282;28;20038;-72
2023/01/05 02:55:23;;;;;;;0.50;0.30;;;10.70;99.90;;;;;;5097908;28;20020;-73
2023/01/05 02:57:59;;;;;;;0.22;0.20;;;10.70;99.90;;;;;;5115437;28;20096;-73
2023/01/05 03:00:34;;;;;;;0.20;0.20;;;10.70;99.90;;;;;;5097329;28;20026;-73
2023/01/05 03:03:18;;;;;;;1.35;0.30;;;10.70;99.90;;;;;;5115957;28;20042;-72
2023/01/05 03:05:50;;;;;;;0.68;0.20;;;10.60;99.90;;;;;;5096942;28;20126;-73
2023/01/05 03:08:22;;;;;;;0.40;0.20;;;10.70;99.90;;;;;;5097461;28;20081;-73
2023/01/05 03:13:45;;;;;;;0.30;0.20;;;10.70;99.90;;;;;;5114934;28;20076;-73
2023/01/05 03:16:18;;;;;;;0.95;0.20;;;10.70;99.90;;;;;;5097266;28;20471;-73
2023/01/05 03:21:30;;;;;;;0.85;0.20;;;10.70;99.90;;;;;;5115240;28;20054;-73
2023/01/05 03:35:33;;;;;;;0.80;0.20;;;10.70;99.90;;;;;;5115444;28;20043;-73
2023/01/05 03:38:27;;;;;;;0.38;0.38;;;10.70;99.90;;;;;;5097215;28;20031;-73
2023/01/05 03:40:56;;;;;;;0.60;0.38;;;10.70;99.90;;;;;;5096403;28;20380;-73
2023/01/05 03:43:22;;;;;;;0.65;0.40;;;10.70;99.90;;;;;;5096628;28;20088;-72
2023/01/05 03:45:56;;;;;;;0.90;0.40;;;10.70;99.90;;;;;;5096182;28;20461;-73
2023/01/05 03:48:23;;;;;;;0.30;0.20;;;10.70;99.90;;;;;;5114913;28;20094;-73
2023/01/05 03:50:49;;;;;;;0.65;0.30;;;10.70;99.90;;;;;;5095982;28;20376;-73
2023/01/05 03:53:14;;;;;;;0.82;0.30;;;10.70;99.90;;;;;;5096735;28;20110;-73
2023/01/05 03:55:40;;;;;;;0.43;0.22;;;10.70;99.90;;;;;;5113977;28;20019;-73
2023/01/05 03:58:06;;;;;;;0.20;0.20;;;10.70;99.90;;;;;;5096333;28;20439;-72
2023/01/05 04:00:32;;;;;;;0.45;0.30;;;10.70;99.90;;;;;;5096490;28;20062;-73
2023/01/05 04:02:57;;;;;;;0.70;0.22;;;10.70;99.90;;;;;;5114538;28;20027;-73
2023/01/05 04:05:23;;;;;;;1.85;0.28;;;10.70;99.90;;;;;;5096276;28;20020;-72
2023/01/05 04:07:49;;;;;;;0.38;0.20;;;10.70;99.90;;;;;;5113979;28;20144;-73
2023/01/05 04:10:14;;;;;;;0.40;0.40;;;10.70;99.90;;;;;;5096508;28;20028;-73
2023/01/05 04:12:40;;;;;;;0.95;0.30;;;10.70;99.90;;;;;;5114025;28;20039;-73
2023/01/05 04:15:06;;;;;;;0.65;0.20;;;10.70;99.90;;;;;;5096053;28;20035;-73
2023/01/05 04:17:32;;;;;;;0.50;0.20;;;10.70;99.90;;;;;;5113984;28;20044;-73
2023/01/05 04:19:58;;;;;;;0.17;0.13;;;10.70;99.90;;;;;;5095962;28;20027;-73
2023/01/05 04:22:24;;;;;;;0.43;0.20;;;10.70;99.90;;;;;;5095923;28;20073;-73
2023/01/05 04:24:49;;;;;;;0.28;0.20;;;10.70;99.90;;;;;;5095506;28;20038;-73
2023/01/05 04:27:15;;;;;;;1.85;0.57;;;10.70;99.90;;;;;;5095813;28;20032;-73
2023/01/05 04:29:40;;;;;;;0.25;0.25;;;10.70;99.90;;;;;;5095477;28;20425;-73
2023/01/05 04:32:06;;;;;;;1.23;0.40;;;10.70;99.90;;;;;;5114133;28;20024;-73
2023/01/05 04:34:31;;;;;;;0.52;0.30;;;10.70;99.90;;;;;;5114167;28;20028;-73
2023/01/05 04:36:57;;;;;;;0.35;0.30;;;10.80;99.90;;;;;;5095197;28;20027;-73
2023/01/05 04:39:23;;;;;;;1.33;0.30;;;10.80;99.90;;;;;;5113932;28;20023;-73
2023/01/05 04:41:49;;;;;;;0.90;0.30;;;10.80;99.90;;;;;;5095166;28;20020;-73
2023/01/05 04:44:15;;;;;;;1.10;0.32;;;10.80;99.90;;;;;;5113781;28;20031;-73
2023/01/05 04:46:40;;;;;;;0.38;0.20;;;10.90;99.90;;;;;;5113360;28;20401;-73
2023/01/05 04:49:08;;;;;;;0.30;0.30;;;10.90;99.90;;;;;;5113485;28;20023;-73
2023/01/05 04:51:33;;;;;;;1.20;0.28;;;10.90;99.90;;;;;;5094815;28;20028;-73
2023/01/05 04:53:59;;;;;;;0.52;0.30;;;10.90;99.90;;;;;;5094771;28;20034;-73
2023/01/05 04:56:25;;;;;;;0.60;0.20;;;11.00;99.90;;;;;;5095541;28;20101;-73
2023/01/05 04:58:50;;;;;;;0.32;0.30;;;11.00;99.90;;;;;;5094821;28;20019;-73
2023/01/05 05:01:16;;;;;;;0.20;0.20;;;11.00;99.90;;;;;;5095569;28;20057;-73
2023/01/05 05:03:41;;;;;;;0.20;0.20;;;11.00;99.90;;;;;;5112858;28;20032;-73
2023/01/05 05:06:07;;;;;;;2.80;0.20;;;11.00;99.90;;;;;;5113553;28;20525;-73
2023/01/05 05:08:33;;;;;;;0.20;0.20;;;11.00;99.90;;;;;;5095321;28;20484;-73
2023/01/05 05:10:58;;;;;;;0.40;0.28;;;11.00;99.90;;;;;;5094800;28;20027;-73
2023/01/05 05:13:24;;;;;;;0.30;0.30;;;11.10;99.90;;;;;;5095202;28;20031;-73
2023/01/05 05:15:49;;;;;;;0.63;0.30;;;11.10;99.90;;;;;;5112938;28;20023;-73
2023/01/05 05:18:15;;;;;;;1.52;0.20;;;11.00;99.90;;;;;;5094946;28;20473;-73
2023/01/05 05:20:43;;;;;;;2.80;0.25;;;11.00;99.90;;;;;;5112920;28;20028;-73
2023/01/05 05:23:08;;;;;;;1.48;0.45;;;11.00;99.90;;;;;;5094912;28;20077;-73
2023/01/05 05:25:34;;;;;;;0.35;0.30;;;11.10;99.90;;;;;;5113267;28;20031;-73
2023/01/05 05:27:59;;;;;;;0.88;0.30;;;11.00;99.90;;;;;;5094239;28;20040;-73
2023/01/05 05:30:25;;;;;;;2.40;0.40;;;11.10;99.90;;;;;;5095223;28;20020;-73
2023/01/05 05:32:51;;;;;;;1.40;0.30;;;11.00;99.90;;;;;;5112715;28;20469;-73
2023/01/05 05:35:16;;;;;;;0.25;0.25;;;11.00;99.90;;;;;;5094994;28;20028;-73
2023/01/05 05:37:42;;;;;;;2.55;0.40;;;11.10;99.90;;;;;;5112710;28;20031;-73
2023/01/05 05:40:08;;;;;;;1.58;0.38;;;11.10;99.90;;;;;;5094960;28;20379;-73
2023/01/05 05:42:34;;;;;;;4.13;0.43;;;11.10;99.90;;;;;;5094702;28;20498;-73
2023/01/05 05:45:00;;;;;;;2.50;0.50;;;11.10;99.90;;;;;;5112566;28;20102;-73
2023/01/05 05:47:25;;;;;;;1.25;0.40;;;11.10;99.90;;;;;;5112749;28;20028;-73
2023/01/05 05:49:51;;;;;;;3.28;0.45;;;11.10;99.90;;;;;;5094282;28;20061;-73
2023/01/05 05:52:17;;;;;;;2.25;0.50;;;11.10;99.90;;;;;;5095128;28;20525;-73
2023/01/05 05:54:42;;;;;;;6.70;0.40;;;11.10;99.90;;;;;;5094247;28;20028;-73
2023/01/05 05:57:08;;;;;;;2.33;0.50;;;11.20;99.90;;;;;;5094707;28;20038;-73
2023/01/05 05:59:33;;;;;;;2.58;0.40;;;11.20;99.90;;;;;;5094727;28;20035;-73
2023/01/05 06:01:59;;;;;;;2.65;0.50;;;11.20;99.90;;;;;;5095421;28;20469;-73
2023/01/05 06:04:24;;;;;;;1.20;0.40;;;11.20;99.90;;;;;;5098606;28;20115;-73
2023/01/05 06:06:50;;;;;;;2.78;0.57;;;11.20;99.90;;;;;;5097865;28;20119;-73
2023/01/05 06:09:15;;;;;;;1.75;0.50;;;11.20;99.90;;;;;;5098646;28;20093;-73
2023/01/05 06:11:41;;;;;;;5.88;0.68;;;11.30;99.90;;;;;;5098072;28;20016;-73
2023/01/05 06:14:07;;;;;;;1.10;0.30;;;11.20;99.90;;;;;;5098626;28;20055;-73
2023/01/05 06:16:32;;;;;;;3.05;0.73;;;11.20;99.90;;;;;;5116635;28;20027;-73
2023/01/05 06:18:58;;;;;;;3.72;0.50;;;11.30;99.90;;;;;;5116364;28;20107;-73
2023/01/05 06:21:24;;;;;;;2.08;0.50;;;11.30;99.90;;;;;;5098007;28;20119;-73
2023/01/05 06:23:49;;;;;;;4.30;0.57;;;11.30;99.90;;;;;;5097757;28;20080;-74
2023/01/05 06:26:15;;;;;;;2.10;0.47;;;11.30;99.90;;;;;;5116391;28;20081;-73
2023/01/05 06:28:41;;;;;;;0.95;0.40;;;11.30;99.90;;;;;;5116980;28;20027;-76
2023/01/05 06:31:06;;;;;;;5.38;0.50;;;11.30;99.90;;;;;;5098202;28;20027;-74
2023/01/05 06:33:32;;;;;;;2.15;0.32;;;11.30;99.90;;;;;;5098188;28;20027;-73
2023/01/05 06:35:57;;;;;;;2.90;0.70;;;11.30;99.90;;;;;;5097728;28;20044;-74
2023/01/05 06:38:24;;;;;;;1.15;0.40;;;11.30;99.90;;;;;;5098116;28;20031;-74
2023/01/05 06:40:50;;;;;;;1.05;0.55;;;11.30;99.90;;;;;;5097528;28;20372;-72
2023/01/05 06:43:16;;;;;;;2.10;0.63;;;11.30;99.90;;;;;;5116299;28;20028;-73
2023/01/05 06:45:41;;;;;;;2.78;0.65;;;11.30;99.90;;;;;;5097948;28;20031;-73
2023/01/05 06:48:07;;;;;;;1.75;0.30;;;11.30;99.90;;;;;;5116218;28;20452;-73
2023/01/05 06:50:33;;;;;;;1.73;0.38;;;11.30;99.90;;;;;;5116079;28;20034;-73
2023/01/05 06:52:58;;;;;;;1.85;0.68;;;11.30;99.90;;;;;;5097312;28;20380;-73
2023/01/05 06:55:24;;;;;;;2.03;0.35;;;11.30;99.90;;;;;;5116100;28;20029;-73
2023/01/05 06:57:50;;;;;;;2.35;0.45;;;11.30;99.90;;;;;;5096892;28;20075;-73
2023/01/05 07:00:16;;;;;;;2.30;0.40;;;11.30;99.90;;;;;;5097700;28;20028;-73
2023/01/05 07:02:42;;;;;;;1.95;0.47;;;11.30;99.90;;;;;;5097728;28;20044;-73
2023/01/05 07:05:08;;;;;;;2.05;0.85;;;11.30;99.90;;;;;;5097246;28;20037;-73
2023/01/05 07:07:35;;;;;;;3.58;1.00;;;11.30;99.90;;;;;;5097581;28;20035;-73
2023/01/05 07:10:01;;;;;;;3.47;0.75;;;11.30;99.90;;;;;;5096970;28;20081;-73
2023/01/05 07:12:27;;;;;;;3.45;0.60;;;11.40;99.90;;;;;;5097305;28;20468;-73
2023/01/05 07:14:52;;;;;;;4.20;0.52;;;11.40;99.90;;;;;;5096133;28;20045;-74
2023/01/05 07:17:18;;;;;;;3.40;0.70;;;11.30;99.90;;;;;;5097155;28;20044;-73
2023/01/05 07:19:43;;;;;;;5.45;1.15;;;11.40;99.90;;;;;;5097195;28;20031;-78
2023/01/05 07:22:09;;;;;;;4.00;0.68;;;11.40;99.90;;;;;;5096928;28;20028;-73
2023/01/05 07:24:35;;;;;;;2.08;0.55;;;11.40;99.90;;;;;;5097183;28;20131;-73
2023/01/05 07:27:01;;;;;;;2.05;0.50;;;11.40;99.90;;;;;;5114755;28;20164;-73
2023/01/05 07:29:26;;;;;;;6.70;0.65;;;11.40;99.90;;;;;;5115100;28;20027;-73
2023/01/05 07:31:52;;;;;;;3.72;0.90;;;11.50;99.90;;;;;;5096515;28;20023;-73
2023/01/05 07:34:19;;;;;;;2.67;0.60;;;11.40;99.90;;;;;;5096999;28;20472;-73
2023/01/05 07:36:46;;;;;;;1.95;0.70;;;11.40;99.90;;;;;;5096553;28;20391;-77
2023/01/05 07:39:11;;;;;;;4.35;0.80;;;11.40;99.90;;;;;;5096903;28;20028;-73
2023/01/05 07:41:37;;;;;;;4.50;0.70;;;11.40;99.90;;;;;;5097085;28;20050;-73
2023/01/05 07:44:03;;;;;;;6.32;1.02;;;11.40;99.90;;;;;;5096319;28;20031;-73
2023/01/05 07:46:29;;;;;;;3.92;1.35;;;11.40;99.90;;;;;;5096736;28;20023;-73
2023/01/05 07:48:57;;;;;;;2.92;0.85;;;11.40;99.90;;;;;;5096267;28;20035;-73
2023/01/05 07:51:23;;;;;;;4.03;1.00;;;11.40;99.90;;;;;;5096598;28;20027;-73
2023/01/05 07:53:48;;;;;;;4.13;1.30;;;11.40;99.90;;;;;;5096180;28;20028;-74
2023/01/05 07:56:14;;;;;;;3.03;0.77;;;11.40;99.90;;;;;;5115118;28;20024;-73
2023/01/05 07:58:40;;;;;;;6.47;0.93;;;11.40;99.90;;;;;;5115010;28;20035;-73
2023/01/05 08:01:09;;;;;;;3.40;0.90;;;11.40;99.90;;;;;;5096141;28;20298;-73
2023/01/05 08:03:35;;;;;;;5.70;0.90;;;11.50;99.90;;;;;;5114593;28;20476;-73
2023/01/05 08:06:12;;;;;;;1.65;0.80;;;11.50;99.90;;;;;;5114475;28;20024;-73
2023/01/05 08:08:39;;;;;;;7.20;0.88;;;11.50;99.90;;;;;;5096487;28;20075;-73
2023/01/05 08:11:06;;;;;;;5.68;1.00;;;11.50;99.90;;;;;;5095679;28;20023;-73
2023/01/05 08:16:17;;;;;;;3.30;0.95;;;11.50;99.90;;;;;;5114532;28;20030;-73
2023/01/05 08:18:42;;;;;;;4.50;0.82;;;11.60;99.90;;;;;;5114444;28;20051;-73
2023/01/05 08:21:08;;;;;;;7.32;1.08;;;11.60;99.90;;;;;;5095653;28;20031;-73
2023/01/05 08:23:35;;;;;;;4.78;0.90;;;11.60;99.90;;;;;;5096181;28;20127;-73
2023/01/05 08:26:11;;;;;;;5.28;0.90;;;11.60;99.90;;;;;;5094352;28;20027;-73
2023/01/05 08:28:37;;;;;;;4.47;0.93;;;11.60;99.90;;;;;;5096002;28;20130;-73
2023/01/05 08:31:09;;;;;;;4.38;1.10;;;11.60;99.90;;;;;;5095411;28;20023;-73
2023/01/05 08:33:34;;;;;;;;;;;11.60;99.90;;;;;;5114588;28;20050;-73
2023/01/05 08:36:00;;;;;;;5.40;1.10;;;11.50;99.90;;;;;;5095306;28;20344;-73
2023/01/05 08:38:26;;;;;;;8.45;0.88;;;11.50;99.90;;;;;;5114002;28;20042;-73
2023/01/05 08:40:52;;;;;;;2.92;1.02;;;11.50;99.90;;;;;;5094881;28;20023;-73
2023/01/05 08:43:18;;;;;;;4.07;0.77;;;11.50;99.90;;;;;;5094988;28;20063;-73
2023/01/05 08:45:48;;;;;;;5.15;0.82;;;11.50;99.90;;;;;;5113818;28;20096;-73
2023/01/05 08:48:14;;;;;;;5.50;1.20;;;11.50;99.90;;;;;;5095830;28;20127;-73
2023/01/05 08:50:40;;;;;;;13.73;4.32;;;11.50;99.90;;;;;;5113735;28;20479;-73
2023/01/05 08:53:05;;;;;;;6.05;1.65;;;11.50;99.90;;;;;;5094894;28;20023;-73
2023/01/05 08:55:31;;;;;;;8.85;1.50;;;11.50;99.90;;;;;;5095510;28;20055;-72
2023/01/05 08:57:56;;;;;;;7.40;1.30;;;11.50;99.90;;;;;;5113272;28;20031;-73
2023/01/05 09:00:22;;;;;;;4.88;0.95;;;11.60;99.90;;;;;;5095580;28;20119;-72
2023/01/05 09:02:48;;;;;;;6.55;1.38;;;11.60;99.90;;;;;;5113724;28;20461;-72
2023/01/05 09:05:14;;;;;;;9.27;1.20;;;11.50;99.90;;;;;;5113012;28;20472;-73
2023/01/05 09:07:40;;;;;;;6.43;1.10;;;11.60;99.90;;;;;;5113438;28;20468;-73
2023/01/05 09:10:07;;;;;;;4.63;1.08;;;11.50;99.90;;;;;;5094727;28;20030;-73
2023/01/05 09:12:36;;;;;;;5.68;1.77;;;11.60;99.90;;;;;;5113147;28;20488;-72
2023/01/05 09:15:03;;;;;;;7.93;1.27;;;11.50;99.90;;;;;;5094694;28;20031;-73
2023/01/05 09:17:29;;;;;;;8.43;1.08;;;11.50;99.90;;;;;;5112885;28;20120;-73
2023/01/05 09:19:54;;;;;;;8.80;1.80;;;11.60;99.90;;;;;;5094654;28;20461;-73
2023/01/05 09:22:20;;;;;;;7.32;1.17;;;11.60;99.90;;;;;;5094769;28;20035;-73
2023/01/05 09:24:46;;;;;;;8.43;2.15;;;11.60;99.90;;;;;;5113194;28;20036;-73
2023/01/05 09:27:11;;;;;;;7.88;1.55;;;11.60;99.90;;;;;;5094361;28;20032;-73
2023/01/05 09:29:37;;;;;;;10.00;1.60;;;11.60;99.90;;;;;;5095009;28;20023;-73
2023/01/05 09:32:03;;;;;;;7.13;1.92;;;11.60;99.90;;;;;;5094580;28;20035;-73
2023/01/05 09:34:29;;;;;;;7.63;1.30;;;11.60;99.90;;;;;;5112775;28;20093;-72
2023/01/05 09:36:55;;;;;;;9.35;1.60;;;11.60;99.90;;;;;;5112164;28;20075;-73
2023/01/05 09:39:20;;;;;;;7.85;1.48;;;11.60;99.90;;;;;;5113225;28;20023;-73
2023/01/05 09:41:55;;;;;;;10.75;1.73;;;11.60;99.90;;;;;;5113134;28;20032;-73
2023/01/05 09:44:28;;;;;;;9.07;1.40;;;11.60;99.90;;;;;;5094877;28;20447;-73
2023/01/05 09:46:58;;;;;;;12.82;1.75;;;11.60;99.90;;;;;;5112518;28;20024;-74
2023/01/05 09:49:27;;;;;;;6.50;1.27;;;11.60;99.90;;;;;;5112820;28;20453;-73
2023/01/05 09:52:08;;;;;;;6.07;1.73;;;11.60;99.90;;;;;;5094271;28;20081;-77
2023/01/05 09:54:34;;;;;;;6.15;1.63;;;11.70;99.90;;;;;;5094507;28;20035;-72
2023/01/05 09:57:00;;;;;;;7.97;1.55;;;11.70;99.90;;;;;;5112081;28;20032;-73
2023/01/05 09:59:30;;;;;;;9.27;1.50;;;11.70;99.90;;;;;;5112903;28;20141;-73
2023/01/05 10:02:00;;;;;;;7.63;1.67;;;11.70;99.90;;;;;;5094317;28;20084;-74
2023/01/05 10:04:28;;;;;;;8.20;1.42;;;11.80;99.90;;;;;;5094471;28;20400;-73
2023/01/05 10:07:00;;;;;;;7.72;1.42;;;11.90;99.90;;;;;;5112797;28;20034;-78
2023/01/05 10:09:38;;;;;;;11.70;2.03;;;11.90;99.90;;;;;;5094827;28;20082;-73
2023/01/05 10:15:24;;;;;;;12.93;1.98;;;11.90;99.90;;;;;;5112875;28;20101;-73
2023/01/05 10:17:50;;;;;;;9.73;1.80;;;12.00;99.90;;;;;;5094085;28;20068;-73
2023/01/05 10:20:39;;;;;;;9.38;1.58;;;12.10;99.90;;;;;;5094050;28;20023;-73
2023/01/05 10:23:30;;;;;;;10.20;1.88;;;12.10;99.90;;;;;;5112445;28;20457;-74
2023/01/05 10:26:40;;;;;;;8.77;1.40;;;12.10;99.90;;;;;;5112326;28;20098;-74
2023/01/05 10:29:10;;;;;;;9.52;1.92;;;12.20;99.90;;;;;;5047872;28;20039;-73
2023/01/05 10:31:39;;;;;;;9.32;1.88;;;12.10;99.90;;;;;;5112726;28;20468;-74
2023/01/05 10:34:21;;;;;;;11.00;2.25;;;12.10;99.90;;;;;;5093845;28;20032;-74
2023/01/05 10:37:02;;;;;;;10.93;1.50;;;12.20;99.90;;;;;;5112652;28;20065;-73
2023/01/05 10:39:50;;;;;;;12.00;1.52;;;12.20;99.90;;;;;;5094465;28;20027;-73
2023/01/05 10:42:33;;;;;;;7.45;1.42;;;12.10;99.90;;;;;;5111792;28;20290;-73
2023/01/05 10:45:05;;;;;;;8.70;1.60;;;12.10;99.90;;;;;;5093961;28;20449;-74
2023/01/05 10:47:34;;;;;;;;;;;12.10;99.90;;;;;;5094758;28;20031;-73
2023/01/05 10:50:02;;;;;;;8.88;1.90;;;12.10;99.90;;;;;;5096386;28;19907;-73
2023/01/05 10:52:28;;;;;;;10.55;1.70;;;12.10;99.90;;;;;;5097969;28;20028;-74
2023/01/05 10:54:59;;;;;;;7.32;1.75;;;12.10;99.90;;;;;;5097790;28;20023;-73
2023/01/05 10:57:31;;;;;;;12.63;1.80;;;12.20;99.90;;;;;;5097521;28;20032;-73
2023/01/05 10:59:57;;;;;;;8.13;1.73;;;12.10;99.90;;;;;;5097851;28;20118;-73
2023/01/05 11:02:27;;;;;;;12.77;2.50;;;12.20;99.90;;;;;;5115897;28;20024;-73
2023/01/05 11:04:54;;;;;;;7.90;1.63;;;12.20;99.90;;;;;;5097465;28;20027;-73
2023/01/05 11:07:20;;;;;;;10.23;1.60;;;12.20;99.90;;;;;;5097074;28;20051;-73
2023/01/05 11:09:47;;;;;;;11.77;2.00;;;12.20;99.90;;;;;;5097664;28;20028;-73
2023/01/05 11:12:21;;;;;;;11.57;1.83;;;12.10;99.90;;;;;;5115240;28;20073;-74
2023/01/05 11:14:55;;;;;;;11.20;1.67;;;12.20;99.90;;;;;;5097354;28;20027;-73
2023/01/05 11:17:24;;;;;;;9.55;1.65;;;12.20;99.90;;;;;;5115100;28;20044;-73
2023/01/05 11:19:54;;;;;;;11.00;1.90;;;12.20;99.90;;;;;;5097509;28;20096;-73
2023/01/05 11:22:38;;;;;;;15.07;2.47;;;12.20;99.90;;;;;;5096717;28;20126;-73
2023/01/05 11:25:32;;;;;;;14.77;2.72;;;12.30;99.90;;;;;;5115003;28;20028;-73
2023/01/05 11:28:07;;;;;;;14.68;3.47;;;12.30;99.90;;;;;;5115201;28;20110;-73
2023/01/05 11:30:33;;;;;;;7.13;1.65;;;12.40;99.90;;;;;;5115343;28;20020;-73
2023/01/05 11:33:00;;;;;;;8.38;1.55;;;12.50;99.90;;;;;;5114954;28;20046;-79
2023/01/05 11:35:31;;;;;;;9.45;2.30;;;12.50;99.90;;;;;;5115267;28;20016;-73
2023/01/05 11:37:56;;;;;;;13.82;1.80;;;12.60;99.90;;;;;;5096987;28;20554;-73
2023/01/05 11:40:28;;;;;;;10.55;1.58;;;12.60;99.90;;;;;;5114712;28;20106;-73
2023/01/05 11:42:53;;;;;;;7.72;1.35;;;12.60;99.90;;;;;;5096831;28;20039;-73
2023/01/05 11:45:23;;;;;;;9.50;1.58;;;12.70;99.90;;;;;;5096484;28;20219;-73
2023/01/05 11:48:04;;;;;;;11.57;1.58;;;12.70;99.90;;;;;;5097029;28;20135;-73
2023/01/05 11:50:32;;;;;;;12.25;2.20;;;12.80;99.90;;;;;;5096439;28;20031;-73
2023/01/05 11:53:01;;;;;;;11.65;1.70;;;12.80;99.90;;;;;;5096586;28;20468;-73
2023/01/05 11:55:33;;;;;;;7.93;1.88;;;12.80;99.90;;;;;;5096570;28;20494;-73
2023/01/05 11:58:24;;;;;;;10.30;1.85;;;12.80;99.90;;;;;;5115051;28;20031;-73
2023/01/05 12:01:17;;;;;;;10.38;1.92;;;12.60;99.90;;;;;;5096514;28;20024;-73
2023/01/05 12:04:02;;;;;;;11.68;2.75;;;12.60;99.90;;;;;;5114687;28;20031;-73
2023/01/05 12:06:46;;;;;;;11.18;1.98;;;12.50;99.90;;;;;;5114627;28;20016;-73
2023/01/05 12:09:32;;;;;;;11.55;1.80;;;12.50;99.90;;;;;;5113915;28;20051;-74
2023/01/05 12:12:07;;;;;;;10.45;1.80;;;12.50;99.90;;;;;;5114579;28;20028;-73
2023/01/05 12:15:15;;;;;;;10.68;1.85;;;12.50;99.90;;;;;;5114614;28;20032;-73
2023/01/05 12:18:06;;;;;;;10.23;1.55;;;12.60;99.90;;;;;;5114062;28;20062;-73
2023/01/05 12:20:39;;;;;;;7.57;1.65;;;12.60;99.90;;;;;;5096209;28;20052;-74
2023/01/05 12:23:17;;;;;;;9.10;1.45;;;12.60;99.90;;;;;;5095561;28;20036;-73
2023/01/05 12:26:12;;;;;;;12.57;1.90;;;12.70;99.90;;;;;;5096225;28;20027;-73
2023/01/05 12:28:53;;;;;;;8.20;1.60;;;12.70;99.90;;;;;;5114552;28;20400;-73
2023/01/05 12:31:45;;;;;;;10.85;2.15;;;12.70;99.90;;;;;;5113688;28;20074;-73
2023/01/05 12:34:41;;;;;;;10.88;2.08;;;12.70;99.90;;;;;;5094635;28;20042;-73
2023/01/05 12:37:28;;;;;;;12.65;2.28;;;12.70;99.90;;;;;;5095023;28;20055;-74
2023/01/05 12:40:22;;;;;;;14.68;1.83;;;12.60;99.90;;;;;;5095732;28;20032;-73
2023/01/05 12:43:15;;;;;;;11.63;2.35;;;12.70;99.90;;;;;;5095716;28;20023;-73
2023/01/05 12:46:09;;;;;;;10.88;1.40;;;12.70;99.90;;;;;;5113856;28;20047;-73
2023/01/05 12:48:47;;;;;;;9.10;1.50;;;12.70;99.90;;;;;;5076620;28;20092;-73
2023/01/05 12:51:23;;;;;;;12.32;1.95;;;12.70;99.90;;;;;;5094757;28;20024;-73
2023/01/05 12:54:12;;;;;;;10.10;2.20;;;12.80;99.90;;;;;;5113626;28;20032;-73
2023/01/05 12:56:57;;;;;;;8.70;1.60;;;12.80;99.90;;;;;;5113704;28;20028;-73
2023/01/05 12:59:32;;;;;;;8.18;1.90;;;12.80;99.90;;;;;;5113050;28;20106;-73
2023/01/05 13:02:13;;;;;;;9.20;1.60;;;12.80;99.90;;;;;;5095410;28;20028;-73
2023/01/05 13:04:48;;;;;;;14.23;2.42;;;12.90;99.90;;;;;;5095302;28;20031;-73
2023/01/05 13:07:28;;;;;;;12.65;2.10;;;12.80;99.90;;;;;;5094873;28;20495;-73
2023/01/05 13:09:59;;;;;;;11.55;1.67;;;12.80;99.90;;;;;;5113208;28;20058;-73
2023/01/05 13:12:25;;;;;;;11.05;1.83;;;12.70;99.90;;;;;;5093763;28;20092;-73
2023/01/05 13:15:17;;;;;;;10.30;1.58;;;12.70;99.90;;;;;;5113402;28;20028;-73
2023/01/05 13:17:49;;;;;;;11.10;1.70;;;12.70;99.90;;;;;;5101931;28;20036;-73
2023/01/05 13:20:50;;;;;;;7.20;1.50;;;12.70;99.90;;;;;;5094580;28;20027;-73
2023/01/05 13:23:24;;;;;;;9.55;2.13;;;12.70;99.90;;;;;;5072921;28;20435;-74
2023/01/05 13:25:55;;;;;;;13.85;1.45;;;12.70;99.90;;;;;;5094994;28;20461;-73
2023/01/05 13:28:23;;;;;;;8.57;1.42;;;12.70;99.90;;;;;;5094113;28;20388;-74
2023/01/05 13:31:06;;;;;;;8.70;1.70;;;12.70;99.90;;;;;;5095115;28;20038;-74
2023/01/05 13:33:47;;;;;;;11.52;1.95;;;12.70;99.90;;;;;;5112955;28;20031;-73
2023/01/05 13:36:50;;;;;;;12.03;2.23;;;12.70;99.90;;;;;;5112438;28;20090;-73
2023/01/05 13:39:34;;;;;;;15.77;2.20;;;12.60;99.90;;;;;;5094275;28;20348;-73